Weather at Abeid Amani Karume International Airport

Public forecast

Using degrees Celsius for public forecast. Weather courtesy of forecast.io.

Current aviation weather report (METAR) for Abeid Amani Karume International Airport

2024/05/26 14:00 (retrieved 54 minutes ago)

HTZA 261400Z 12012KT 9999 BKN024 28/23 Q1014 NOSIG

Aviation forecast (TAF) for Abeid Amani Karume International Airport

2024/05/26 12:57 (retrieved 2 hours ago)

TAF HTZA 261100Z 2612/2712 15010KT 9999 SCT022 BECMG 2703/2705 21010KT